createdAt,value
2022-10-15T00:01:16.258Z,21.30
2022-10-15T00:03:44.441Z,20.33
2022-10-15T00:06:15.085Z,22.25
2022-10-15T00:08:42.960Z,19.95
2022-10-15T00:11:22.226Z,22.15
2022-10-15T00:13:50.677Z,24.70
2022-10-15T00:18:46.100Z,25.05
2022-10-15T00:21:15.093Z,22.15
2022-10-15T00:23:42.095Z,24.05
2022-10-15T00:26:11.672Z,28.45
2022-10-15T00:28:38.498Z,22.30
2022-10-15T00:31:16.837Z,24.23
2022-10-15T00:33:49.620Z,20.83
2022-10-15T00:36:19.562Z,26.20
2022-10-15T00:38:46.384Z,24.48
2022-10-15T00:41:21.089Z,23.52
2022-10-15T00:43:49.078Z,24.15
2022-10-15T00:46:26.864Z,24.02
2022-10-15T00:48:58.566Z,26.02
2022-10-15T00:51:31.703Z,22.92
2022-10-15T00:53:58.978Z,23.52
2022-10-15T00:56:28.781Z,25.67
2022-10-15T00:58:56.822Z,23.20
2022-10-15T01:01:25.697Z,25.95
2022-10-15T01:03:55.548Z,27.27
2022-10-15T01:06:23.505Z,25.67
2022-10-15T01:08:50.930Z,28.00
2022-10-15T01:11:37.286Z,27.13
2022-10-15T01:14:41.465Z,26.55
2022-10-15T01:17:20.569Z,29.20
2022-10-15T01:20:23.172Z,26.60
2022-10-15T01:23:26.608Z,27.73
2022-10-15T01:26:25.589Z,27.75
2022-10-15T01:29:21.814Z,28.95
2022-10-15T01:32:15.483Z,23.75
2022-10-15T01:34:57.396Z,28.23
2022-10-15T01:37:32.495Z,26.00
2022-10-15T01:40:09.501Z,25.77
2022-10-15T01:42:53.377Z,26.10
2022-10-15T01:45:28.162Z,24.85
2022-10-15T01:48:21.364Z,30.65
2022-10-15T01:50:52.866Z,27.45
2022-10-15T01:53:26.641Z,29.92
2022-10-15T01:55:57.772Z,26.92
2022-10-15T01:58:25.849Z,26.42
2022-10-15T02:00:55.866Z,29.90
2022-10-15T02:03:22.779Z,27.20
2022-10-15T02:05:58.017Z,27.88
2022-10-15T02:09:08.568Z,28.27
2022-10-15T02:11:50.853Z,31.15
2022-10-15T02:14:31.665Z,28.30
2022-10-15T02:17:10.113Z,31.65
2022-10-15T02:19:48.826Z,30.98
2022-10-15T02:22:22.212Z,32.08
2022-10-15T02:25:01.709Z,29.70
2022-10-15T02:27:31.508Z,27.23
2022-10-15T02:30:01.957Z,26.08
2022-10-15T02:32:30.418Z,30.20
2022-10-15T02:37:27.878Z,27.20
2022-10-15T02:39:54.778Z,25.88
2022-10-15T02:42:22.076Z,28.02
2022-10-15T02:44:49.026Z,29.75
2022-10-15T02:47:15.865Z,27.15
2022-10-15T02:49:42.721Z,27.48
2022-10-15T02:52:10.106Z,29.27
2022-10-15T02:54:36.993Z,26.98
2022-10-15T02:57:03.769Z,31.60
2022-10-15T02:59:30.621Z,27.88
2022-10-15T03:01:58.590Z,25.58
2022-10-15T03:04:26.734Z,32.63
2022-10-15T03:06:53.758Z,27.92
2022-10-15T03:09:20.466Z,29.23
2022-10-15T03:11:47.386Z,30.08
2022-10-15T03:14:14.349Z,29.38
2022-10-15T03:16:41.402Z,28.58
2022-10-15T03:19:09.737Z,26.90
2022-10-15T03:21:36.589Z,28.40
2022-10-15T03:24:09.438Z,27.55
2022-10-15T03:26:36.631Z,27.08
2022-10-15T03:29:03.589Z,27.75
2022-10-15T03:31:42.940Z,32.65
2022-10-15T03:34:10.189Z,27.95
2022-10-15T03:36:37.106Z,29.25
2022-10-15T03:39:08.291Z,30.23
2022-10-15T03:41:35.713Z,29.77
2022-10-15T03:44:04.952Z,31.35
2022-10-15T03:46:32.590Z,27.10
2022-10-15T03:49:01.214Z,28.42
2022-10-15T03:51:30.668Z,29.58
2022-10-15T03:54:04.212Z,32.83
2022-10-15T03:56:31.266Z,28.00
2022-10-15T03:59:14.945Z,26.80
2022-10-15T04:01:42.001Z,28.40
2022-10-15T04:04:10.396Z,28.08
2022-10-15T04:09:11.564Z,28.98
2022-10-15T04:11:38.342Z,26.48
2022-10-15T04:14:06.310Z,27.80
2022-10-15T04:16:33.917Z,28.88
2022-10-15T04:19:08.665Z,30.02
2022-10-15T04:21:37.813Z,27.42
2022-10-15T04:24:05.598Z,25.55
2022-10-15T04:26:36.431Z,26.60
2022-10-15T04:29:03.421Z,28.40
2022-10-15T04:31:31.256Z,28.80
2022-10-15T04:33:59.282Z,25.80
2022-10-15T04:36:26.854Z,26.27
2022-10-15T04:39:06.930Z,25.70
2022-10-15T04:41:38.681Z,27.20
2022-10-15T04:44:10.154Z,25.55
2022-10-15T04:46:38.155Z,24.02
2022-10-15T04:49:25.943Z,28.02
2022-10-15T04:51:53.090Z,27.80
2022-10-15T04:54:28.433Z,23.23
2022-10-15T04:56:58.274Z,30.13
2022-10-15T04:59:25.461Z,23.63
2022-10-15T05:02:11.718Z,28.48
2022-10-15T05:04:38.885Z,25.90
2022-10-15T05:07:05.708Z,25.48
2022-10-15T05:09:34.672Z,24.50
2022-10-15T05:12:03.865Z,25.83
2022-10-15T05:14:30.701Z,25.85
2022-10-15T05:17:14.264Z,25.23
2022-10-15T05:22:16.802Z,30.88
2022-10-15T05:24:49.943Z,23.75
2022-10-15T05:27:36.697Z,26.65
2022-10-15T05:30:05.226Z,23.45
2022-10-15T05:35:16.408Z,24.00
2022-10-15T05:37:59.571Z,28.13
2022-10-15T05:40:26.398Z,29.80
2022-10-15T05:43:05.783Z,31.83
2022-10-15T05:45:32.514Z,31.30
2022-10-15T05:48:04.360Z,35.10
2022-10-15T05:50:31.052Z,32.92
2022-10-15T05:52:58.914Z,40.80
2022-10-15T05:58:06.450Z,38.15
2022-10-15T06:00:33.525Z,39.70
2022-10-15T06:03:00.225Z,39.13
2022-10-15T06:05:26.982Z,40.78
2022-10-15T06:07:53.753Z,39.28
2022-10-15T06:10:20.519Z,39.58
2022-10-15T06:12:50.767Z,40.72
2022-10-15T06:15:18.723Z,41.60
2022-10-15T06:17:45.540Z,35.97
2022-10-15T06:20:13.385Z,39.15
2022-10-15T06:22:40.468Z,40.70
2022-10-15T06:25:08.101Z,35.42
2022-10-15T06:27:34.861Z,40.40
2022-10-15T06:30:01.615Z,38.10
2022-10-15T06:32:28.373Z,37.97
2022-10-15T06:34:55.155Z,36.83
2022-10-15T06:37:22.371Z,36.20
2022-10-15T06:39:51.235Z,35.72
2022-10-15T06:42:17.999Z,36.00
2022-10-15T06:44:47.672Z,37.95
2022-10-15T06:47:17.202Z,41.33
2022-10-15T06:49:47.243Z,38.90
2022-10-15T06:52:14.014Z,42.75
2022-10-15T06:54:40.719Z,38.70
2022-10-15T06:57:08.042Z,38.63
2022-10-15T06:59:38.548Z,37.08
2022-10-15T07:02:10.346Z,36.97
2022-10-15T07:04:37.088Z,38.97
2022-10-15T07:07:03.806Z,38.10
2022-10-15T07:09:31.099Z,38.55
2022-10-15T07:11:57.789Z,37.00
2022-10-15T07:14:24.578Z,37.42
2022-10-15T07:16:51.377Z,37.15
2022-10-15T07:19:18.406Z,38.75
2022-10-15T07:21:46.807Z,36.65
2022-10-15T07:24:14.077Z,36.80
2022-10-15T07:26:40.872Z,35.97
2022-10-15T07:29:07.943Z,32.45
2022-10-15T07:31:35.269Z,33.67
2022-10-15T07:34:02.057Z,33.50
2022-10-15T07:36:28.765Z,32.83
2022-10-15T07:38:55.490Z,30.98
2022-10-15T07:41:22.205Z,33.88
2022-10-15T07:43:52.893Z,31.38
2022-10-15T07:46:19.908Z,32.28
2022-10-15T07:48:49.814Z,28.80
2022-10-15T07:53:48.396Z,27.00
2022-10-15T07:56:16.881Z,25.40
2022-10-15T08:01:20.122Z,24.60
2022-10-15T08:03:47.518Z,25.15
2022-10-15T08:06:14.877Z,24.15
2022-10-15T08:08:41.834Z,22.23
2022-10-15T08:11:11.213Z,21.50
2022-10-15T08:13:42.154Z,22.25
2022-10-15T08:16:12.905Z,23.33
2022-10-15T08:18:40.235Z,20.45
2022-10-15T08:21:08.232Z,20.60
2022-10-15T08:23:35.876Z,21.50
2022-10-15T08:26:02.754Z,20.20
2022-10-15T08:28:30.337Z,21.42
2022-10-15T08:31:04.510Z,20.17
2022-10-15T08:33:34.203Z,17.48
2022-10-15T08:36:01.058Z,19.27
2022-10-15T08:38:28.550Z,17.17
2022-10-15T08:40:57.918Z,21.25
2022-10-15T08:43:37.679Z,16.98
2022-10-15T08:46:11.825Z,15.88
2022-10-15T08:48:44.490Z,15.88
2022-10-15T08:51:18.510Z,16.35
2022-10-15T08:53:52.363Z,14.88
2022-10-15T08:56:33.105Z,15.10
2022-10-15T08:59:26.275Z,14.82
2022-10-15T09:01:58.657Z,15.90
2022-10-15T09:04:41.773Z,14.48
2022-10-15T09:07:19.229Z,14.50
2022-10-15T09:09:51.998Z,15.15
2022-10-15T09:12:37.658Z,14.23
2022-10-15T09:15:09.664Z,15.25
2022-10-15T09:17:37.458Z,14.45
2022-10-15T09:20:07.845Z,14.20
2022-10-15T09:22:36.040Z,13.02
2022-10-15T09:25:32.078Z,13.10
2022-10-15T09:28:07.313Z,12.45
2022-10-15T09:30:37.965Z,13.77
2022-10-15T09:33:16.880Z,11.63
2022-10-15T09:35:46.230Z,12.40
2022-10-15T09:39:00.830Z,13.40
2022-10-15T09:41:33.730Z,11.52
2022-10-15T09:44:03.653Z,13.98
2022-10-15T09:46:49.388Z,14.55
2022-10-15T09:49:25.805Z,11.43
2022-10-15T09:52:18.643Z,13.98
2022-10-15T09:55:03.433Z,15.60
2022-10-15T09:57:33.133Z,13.63
2022-10-15T10:00:02.104Z,11.52
2022-10-15T10:02:39.160Z,11.35
2022-10-15T10:05:31.577Z,12.05
2022-10-15T10:08:21.871Z,15.95
2022-10-15T10:11:15.052Z,16.55
2022-10-15T10:14:04.195Z,13.77
2022-10-15T10:16:32.867Z,14.95
2022-10-15T10:19:20.112Z,14.05
2022-10-15T10:21:46.876Z,14.80
2022-10-15T10:24:21.150Z,12.57
2022-10-15T10:26:48.492Z,13.45
2022-10-15T10:29:33.636Z,12.32
2022-10-15T10:32:12.836Z,13.45
2022-10-15T10:34:44.808Z,11.38
2022-10-15T10:37:13.330Z,12.25
2022-10-15T10:39:40.126Z,12.25
2022-10-15T10:42:23.157Z,16.48
2022-10-15T10:44:49.929Z,9.88
2022-10-15T10:47:20.893Z,11.25
2022-10-15T10:49:53.558Z,12.93
2022-10-15T10:52:27.626Z,10.25
2022-10-15T10:55:08.007Z,9.95
2022-10-15T10:57:55.188Z,9.63
2022-10-15T11:00:39.703Z,8.95
2022-10-15T11:03:15.010Z,9.63
2022-10-15T11:05:44.967Z,9.02
2022-10-15T11:08:37.402Z,9.00
2022-10-15T11:11:12.939Z,10.02
2022-10-15T11:13:52.938Z,8.38
2022-10-15T11:16:33.640Z,7.90
2022-10-15T11:19:43.906Z,7.05
2022-10-15T11:22:32.712Z,8.80
2022-10-15T11:25:23.813Z,7.65
2022-10-15T11:28:22.824Z,7.50
2022-10-15T11:34:04.166Z,10.27
2022-10-15T11:36:52.369Z,7.53
2022-10-15T11:39:45.028Z,9.48
2022-10-15T11:42:49.017Z,8.27
2022-10-15T11:45:15.725Z,7.88
2022-10-15T11:47:55.450Z,6.50
2022-10-15T11:50:41.709Z,6.30
2022-10-15T11:53:23.594Z,6.57
2022-10-15T11:56:19.758Z,5.57
2022-10-15T11:58:52.205Z,6.38
2022-10-15T12:01:29.265Z,5.43
2022-10-15T12:04:11.822Z,6.57
2022-10-15T12:06:45.146Z,5.97
2022-10-15T12:09:20.362Z,4.88
2022-10-15T12:12:04.527Z,5.93
2022-10-15T12:14:40.414Z,5.05
2022-10-15T12:17:44.723Z,6.85
2022-10-15T12:20:21.193Z,5.40
2022-10-15T12:22:47.855Z,4.30
2022-10-15T12:25:36.170Z,5.30
2022-10-15T12:28:05.935Z,5.05
2022-10-15T12:30:34.721Z,5.63
2022-10-15T12:33:03.504Z,4.07
2022-10-15T12:35:34.746Z,3.85
2022-10-15T12:38:30.905Z,3.30
2022-10-15T12:41:05.309Z,5.38
2022-10-15T12:43:35.686Z,3.50
2022-10-15T12:46:06.062Z,4.32
2022-10-15T12:48:32.971Z,4.43
2022-10-15T12:51:29.736Z,4.35
2022-10-15T12:53:58.342Z,4.32
2022-10-15T12:56:43.878Z,5.72
2022-10-15T12:59:50.190Z,4.10
2022-10-15T13:02:39.637Z,5.82
2022-10-15T13:05:09.071Z,5.40
2022-10-15T13:07:40.543Z,5.53
2022-10-15T13:10:20.695Z,5.57
2022-10-15T13:12:53.405Z,5.72
2022-10-15T13:15:25.461Z,5.53
2022-10-15T13:17:54.882Z,6.40
2022-10-15T13:20:37.922Z,5.63
2022-10-15T13:23:30.112Z,6.07
2022-10-15T13:28:43.909Z,6.60
2022-10-15T13:31:24.721Z,6.82
2022-10-15T13:33:57.606Z,4.97
2022-10-15T13:36:33.998Z,5.47
2022-10-15T13:39:08.589Z,5.53
2022-10-15T13:41:40.337Z,6.22
2022-10-15T13:44:19.033Z,6.72
2022-10-15T13:46:45.779Z,6.13
2022-10-15T13:49:13.393Z,5.45
2022-10-15T13:51:44.623Z,5.63
2022-10-15T13:54:18.897Z,5.50
2022-10-15T13:56:58.837Z,5.53
2022-10-15T13:59:28.130Z,6.72
2022-10-15T14:02:01.205Z,6.53
2022-10-15T14:04:30.427Z,5.50
2022-10-15T14:07:04.399Z,6.30
2022-10-15T14:09:36.757Z,6.50
2022-10-15T14:12:07.162Z,6.00
2022-10-15T14:14:36.887Z,5.38
2022-10-15T14:17:08.889Z,6.15
2022-10-15T14:19:39.993Z,7.60
2022-10-15T14:22:07.105Z,7.85
2022-10-15T14:24:39.483Z,6.90
2022-10-15T14:27:25.428Z,5.60
2022-10-15T14:29:53.910Z,5.68
2022-10-15T14:32:26.476Z,6.50
2022-10-15T14:34:55.867Z,6.13
2022-10-15T14:37:41.658Z,5.93
2022-10-15T14:40:08.487Z,4.95
2022-10-15T14:42:39.741Z,5.82
2022-10-15T14:45:18.491Z,6.07
2022-10-15T14:47:54.406Z,6.32
2022-10-15T14:50:25.480Z,4.70
2022-10-15T14:52:54.045Z,4.72
2022-10-15T14:55:24.301Z,5.80
2022-10-15T14:57:52.386Z,5.00
2022-10-15T15:00:31.658Z,4.75
2022-10-15T15:03:01.545Z,5.20
2022-10-15T15:05:29.494Z,4.15
2022-10-15T15:07:57.627Z,4.45
2022-10-15T15:10:25.874Z,5.05
2022-10-15T15:12:56.810Z,4.78
2022-10-15T15:15:25.624Z,4.22
2022-10-15T15:17:52.426Z,4.03
2022-10-15T15:20:20.688Z,4.22
2022-10-15T15:22:52.955Z,5.40
2022-10-15T15:25:31.272Z,5.15
2022-10-15T15:27:58.077Z,4.15
2022-10-15T15:30:27.196Z,3.08
2022-10-15T15:32:54.081Z,4.85
2022-10-15T15:35:32.278Z,4.65
2022-10-15T15:37:59.054Z,2.63
2022-10-15T15:40:25.817Z,3.50
2022-10-15T15:42:52.514Z,4.57
2022-10-15T15:45:25.370Z,4.22
2022-10-15T15:47:52.334Z,3.30
2022-10-15T15:50:21.129Z,4.10
2022-10-15T15:52:48.186Z,3.08
2022-10-15T15:55:15.753Z,2.42
2022-10-15T15:57:42.550Z,2.90
2022-10-15T16:00:10.215Z,4.32
2022-10-15T16:02:37.401Z,4.88
2022-10-15T16:05:07.285Z,4.18
2022-10-15T16:07:35.017Z,4.88
2022-10-15T16:10:03.948Z,4.28
2022-10-15T16:12:30.771Z,3.10
2022-10-15T16:17:25.409Z,4.68
2022-10-15T16:19:52.438Z,3.58
2022-10-15T16:22:19.142Z,3.33
2022-10-15T16:24:45.880Z,5.97
2022-10-15T16:27:12.815Z,4.55
2022-10-15T16:29:39.568Z,5.57
2022-10-15T16:32:06.531Z,3.15
2022-10-15T16:34:33.337Z,4.68
2022-10-15T16:37:00.229Z,2.92
2022-10-15T16:39:26.893Z,4.55
2022-10-15T16:41:53.687Z,3.47
2022-10-15T16:44:20.849Z,4.68
2022-10-15T16:46:47.651Z,3.75
2022-10-15T16:49:14.394Z,5.32
2022-10-15T16:51:43.504Z,5.68
2022-10-15T16:54:15.339Z,4.80
2022-10-15T16:56:42.643Z,10.38
2022-10-15T16:59:09.490Z,5.07
2022-10-15T17:01:36.898Z,5.32
2022-10-15T17:04:03.927Z,5.57
2022-10-15T17:06:31.593Z,6.10
2022-10-15T17:09:00.629Z,4.57
2022-10-15T17:11:40.231Z,6.32
2022-10-15T17:14:12.318Z,6.43
2022-10-15T17:16:44.807Z,5.40
2022-10-15T17:19:12.913Z,4.25
2022-10-15T17:21:42.422Z,4.18
2022-10-15T17:24:13.515Z,5.32
2022-10-15T17:26:42.998Z,5.80
2022-10-15T17:29:20.503Z,7.38
2022-10-15T17:31:48.133Z,4.60
2022-10-15T17:34:15.174Z,8.13
2022-10-15T17:36:47.793Z,5.50
2022-10-15T17:39:17.942Z,5.45
2022-10-15T17:41:45.409Z,6.22
2022-10-15T17:44:12.425Z,6.50
2022-10-15T17:46:39.416Z,4.68
2022-10-15T17:49:06.340Z,4.90
2022-10-15T17:51:34.509Z,5.07
2022-10-15T17:54:02.340Z,6.07
2022-10-15T17:56:31.373Z,5.88
2022-10-15T17:58:59.748Z,3.90
2022-10-15T18:01:39.233Z,3.90
2022-10-15T18:04:07.011Z,5.55
2022-10-15T18:06:33.773Z,5.32
2022-10-15T18:09:00.703Z,8.05
2022-10-15T18:11:33.789Z,4.53
2022-10-15T18:14:01.109Z,6.45
2022-10-15T18:16:27.986Z,5.22
2022-10-15T18:18:55.640Z,6.43
2022-10-15T18:21:24.816Z,7.03
2022-10-15T18:23:51.868Z,6.60
2022-10-15T18:26:22.247Z,8.20
2022-10-15T18:28:51.551Z,8.90
2022-10-15T18:31:18.737Z,6.22
2022-10-15T18:33:48.067Z,8.45
2022-10-15T18:36:17.596Z,7.72
2022-10-15T18:38:44.517Z,7.47
2022-10-15T18:41:21.570Z,8.77
2022-10-15T18:43:56.571Z,8.80
2022-10-15T18:46:28.386Z,6.07
2022-10-15T18:48:55.419Z,6.82
2022-10-15T18:51:26.722Z,8.93
2022-10-15T18:53:53.982Z,6.45
2022-10-15T18:56:21.707Z,6.57
2022-10-15T18:58:48.662Z,7.78
2022-10-15T19:01:36.644Z,7.68
2022-10-15T19:04:06.558Z,9.40
2022-10-15T19:06:42.176Z,6.78
2022-10-15T19:09:15.109Z,8.27
2022-10-15T19:11:43.929Z,6.30
2022-10-15T19:14:11.901Z,7.60
2022-10-15T19:16:38.902Z,8.38
2022-10-15T19:19:12.486Z,6.78
2022-10-15T19:21:39.482Z,6.53
2022-10-15T19:24:06.618Z,6.22
2022-10-15T19:26:34.264Z,7.57
2022-10-15T19:29:01.877Z,7.78
2022-10-15T19:31:30.962Z,6.55
2022-10-15T19:33:58.866Z,5.20
2022-10-15T19:36:29.191Z,5.60
2022-10-15T19:38:56.769Z,7.45
2022-10-15T19:41:23.621Z,3.97
2022-10-15T19:43:51.682Z,4.78
2022-10-15T19:46:18.494Z,5.57
2022-10-15T19:48:47.250Z,9.05
2022-10-15T19:51:14.623Z,8.40
2022-10-15T19:53:41.387Z,7.35
2022-10-15T19:56:10.609Z,4.68
2022-10-15T19:58:37.754Z,6.43
2022-10-15T20:01:05.516Z,6.72
2022-10-15T20:03:32.527Z,5.93
2022-10-15T20:06:07.126Z,7.30
2022-10-15T20:08:34.241Z,6.68
2022-10-15T20:11:00.992Z,5.78
2022-10-15T20:13:27.810Z,7.55
2022-10-15T20:15:54.942Z,5.68
2022-10-15T20:18:22.394Z,5.90
2022-10-15T20:20:49.217Z,6.60
2022-10-15T20:23:17.758Z,9.52
2022-10-15T20:33:07.561Z,7.18
2022-10-15T20:35:36.065Z,9.48
2022-10-15T20:38:03.771Z,9.02
2022-10-15T20:40:30.898Z,10.98
2022-10-15T20:42:57.678Z,8.15
2022-10-15T20:45:29.670Z,9.10
2022-10-15T20:47:57.937Z,9.77
2022-10-15T20:50:28.318Z,6.13
2022-10-15T20:52:57.071Z,7.13
2022-10-15T20:55:24.293Z,7.95
2022-10-15T20:57:51.527Z,6.00
2022-10-15T21:00:18.578Z,5.57
2022-10-15T21:02:45.322Z,8.57
2022-10-15T21:05:12.150Z,8.02
2022-10-15T21:07:38.934Z,11.55
2022-10-15T21:10:06.117Z,8.45
2022-10-15T21:12:32.938Z,11.90
2022-10-15T21:14:59.722Z,8.50
2022-10-15T21:17:26.900Z,6.55
2022-10-15T21:19:53.914Z,6.75
2022-10-15T21:22:20.976Z,9.32
2022-10-15T21:24:47.661Z,7.25
2022-10-15T21:27:14.422Z,8.63
2022-10-15T21:29:42.650Z,7.97
2022-10-15T21:32:09.418Z,6.47
2022-10-15T21:34:36.189Z,6.15
2022-10-15T21:37:03.104Z,9.02
2022-10-15T21:39:29.929Z,8.57
2022-10-15T21:41:56.678Z,8.48
2022-10-15T21:44:23.540Z,6.03
2022-10-15T21:46:50.255Z,6.53
2022-10-15T21:49:16.971Z,7.88
2022-10-15T21:51:44.075Z,7.90
2022-10-15T21:54:11.126Z,5.60
2022-10-15T21:56:38.501Z,5.45
2022-10-15T21:59:05.605Z,5.80
2022-10-15T22:01:34.702Z,9.00
2022-10-15T22:04:03.954Z,9.95
2022-10-15T22:06:32.015Z,9.73
2022-10-15T22:08:59.743Z,6.35
2022-10-15T22:11:29.426Z,5.55
2022-10-15T22:13:58.397Z,6.32
2022-10-15T22:16:26.789Z,7.70
2022-10-15T22:18:54.595Z,5.85
2022-10-15T22:21:27.965Z,4.60
2022-10-15T22:23:55.892Z,6.65
2022-10-15T22:26:26.303Z,5.07
2022-10-15T22:28:54.603Z,7.30
2022-10-15T22:31:21.743Z,8.18
2022-10-15T22:33:48.574Z,7.70
2022-10-15T22:36:18.366Z,3.58
2022-10-15T22:38:46.966Z,6.13
2022-10-15T22:41:14.800Z,7.82
2022-10-15T22:43:42.436Z,5.53
2022-10-15T22:46:10.186Z,7.00
2022-10-15T22:48:39.407Z,4.85
2022-10-15T22:51:08.955Z,6.63
2022-10-15T22:53:36.046Z,4.95
2022-10-15T22:56:05.838Z,6.05
2022-10-15T22:58:34.572Z,8.85
2022-10-15T23:01:15.915Z,8.68
2022-10-15T23:03:45.297Z,5.10
2022-10-15T23:06:12.990Z,5.47
2022-10-15T23:08:40.809Z,4.57
2022-10-15T23:11:12.614Z,4.38
2022-10-15T23:13:40.314Z,4.13
2022-10-15T23:16:19.336Z,3.47
2022-10-15T23:18:47.429Z,4.40
2022-10-15T23:21:16.637Z,5.93
2022-10-15T23:23:44.684Z,11.63
2022-10-15T23:26:13.837Z,6.45
2022-10-15T23:28:40.718Z,5.43
2022-10-15T23:31:07.552Z,4.95
2022-10-15T23:33:34.568Z,6.75
2022-10-15T23:36:04.432Z,6.22
2022-10-15T23:38:31.397Z,4.63
2022-10-15T23:41:03.230Z,5.65
2022-10-15T23:43:30.429Z,7.32
2022-10-15T23:45:57.543Z,6.18
2022-10-15T23:48:25.369Z,5.40
2022-10-15T23:50:52.324Z,4.93
2022-10-15T23:53:19.303Z,4.95
2022-10-15T23:55:46.160Z,4.65
2022-10-15T23:58:13.309Z,5.95
